map of SUT home
SUT - Airport
Location
City:  Sumbawanga, Rukwa, Tanzania
Name:Sumbawanga Airport
ICAO:HTSU
IATA:SUT

Details
Type:Airport (Aerodrome, Airfield)
Latitude:758'S (-7.967)
Longitude:3140'E (31.667)
Elevation:5920 ft (1804 m)
Variation:1.01W (WMM2015v2 magnetic declination)
0.02 annual change
Runways:unknown number
Longest:4600 ft (1402 m)

Time
Time Zone:UTC+3
Local Time:

Weather
METAR:HTSU 041300Z 30006KT 9999 SCT023 FEW025CB BKN240 25/14 Q1017

Related Locations
Nearby:
Farthest:CXI: 11699 mi / 18828 km
Christmas Island (Kiritimati) [Cassidy Intl], L, KI

Find:

   beyond  
but within

Other Information
Maps:
NOTAMs:
Links:
Sources:

  
  • flag of Tanzania
  

Sectional Chart

Flight Planning
at skyvector.com

Satellite Image

Google Maps Satellite view

 

Copyright © 2004-2019 Karl L. Swartz. All rights reserved.
The Great Circle Mapper name and logo are trademarks of the Great Circle Mapper.
All other trademarks mentioned herein belong to their respective owners.
Please see credits for attibutions and further copyright information.

  Follow gcmap on Facebook Follow gcmap on Twitter GCmap on LinkedIn

hCard Microformat

Geo Microformat